sensor_id;sensor_type;location;lat;lon;timestamp;temperature;humidity
37984;DHT22;64625;50.882;4.376;2023-02-28T00:00:23;2.90;99.90
37984;DHT22;64625;50.882;4.376;2023-02-28T00:02:50;2.90;99.90
37984;DHT22;64625;50.882;4.376;2023-02-28T00:05:19;2.90;99.90
37984;DHT22;64625;50.882;4.376;2023-02-28T00:07:45;2.80;99.90
37984;DHT22;64625;50.882;4.376;2023-02-28T00:10:14;2.80;99.90
37984;DHT22;64625;50.882;4.376;2023-02-28T00:12:47;2.80;99.90
37984;DHT22;64625;50.882;4.376;2023-02-28T00:15:13;2.80;99.90
37984;DHT22;64625;50.882;4.376;2023-02-28T00:17:39;2.70;99.90
37984;DHT22;64625;50.882;4.376;2023-02-28T00:20:06;2.70;99.90
37984;DHT22;64625;50.882;4.376;2023-02-28T00:22:43;2.70;99.90
37984;DHT22;64625;50.882;4.376;2023-02-28T00:25:11;2.70;99.90
37984;DHT22;64625;50.882;4.376;2023-02-28T00:27:38;2.60;99.90
37984;DHT22;64625;50.882;4.376;2023-02-28T00:30:06;2.60;99.90
37984;DHT22;64625;50.882;4.376;2023-02-28T00:32:33;2.60;99.90
37984;DHT22;64625;50.882;4.376;2023-02-28T00:35:00;2.60;99.90
37984;DHT22;64625;50.882;4.376;2023-02-28T00:37:26;2.50;99.90
37984;DHT22;64625;50.882;4.376;2023-02-28T00:39:52;2.50;99.90
37984;DHT22;64625;50.882;4.376;2023-02-28T00:42:17;2.50;99.90
37984;DHT22;64625;50.882;4.376;2023-02-28T00:44:43;2.50;99.90
37984;DHT22;64625;50.882;4.376;2023-02-28T00:47:09;2.40;99.90
37984;DHT22;64625;50.882;4.376;2023-02-28T00:49:34;2.40;99.90
37984;DHT22;64625;50.882;4.376;2023-02-28T00:52:00;2.40;99.90
37984;DHT22;64625;50.882;4.376;2023-02-28T00:54:26;2.40;99.90
37984;DHT22;64625;50.882;4.376;2023-02-28T00:56:52;2.40;99.90
37984;DHT22;64625;50.882;4.376;2023-02-28T00:59:18;2.40;99.90
37984;DHT22;64625;50.882;4.376;2023-02-28T01:01:45;2.40;99.90
37984;DHT22;64625;50.882;4.376;2023-02-28T01:04:12;2.30;99.90
37984;DHT22;64625;50.882;4.376;2023-02-28T01:06:38;2.40;99.90
37984;DHT22;64625;50.882;4.376;2023-02-28T01:09:08;2.40;99.90
37984;DHT22;64625;50.882;4.376;2023-02-28T01:11:34;2.30;99.90
37984;DHT22;64625;50.882;4.376;2023-02-28T01:14:02;2.30;99.90
37984;DHT22;64625;50.882;4.376;2023-02-28T01:16:29;2.30;99.90
37984;DHT22;64625;50.882;4.376;2023-02-28T01:18:56;2.30;99.90
37984;DHT22;64625;50.882;4.376;2023-02-28T01:21:23;2.30;99.90
37984;DHT22;64625;50.882;4.376;2023-02-28T01:23:49;2.30;99.90
37984;DHT22;64625;50.882;4.376;2023-02-28T01:26:19;2.20;99.90
37984;DHT22;64625;50.882;4.376;2023-02-28T01:28:45;2.20;99.90
37984;DHT22;64625;50.882;4.376;2023-02-28T01:31:12;2.10;99.90
37984;DHT22;64625;50.882;4.376;2023-02-28T01:33:39;2.10;99.90
37984;DHT22;64625;50.882;4.376;2023-02-28T01:36:08;2.10;99.90
37984;DHT22;64625;50.882;4.376;2023-02-28T01:38:35;2.00;99.90
37984;DHT22;64625;50.882;4.376;2023-02-28T01:41:01;2.00;99.90
37984;DHT22;64625;50.882;4.376;2023-02-28T01:43:32;2.00;99.90
37984;DHT22;64625;50.882;4.376;2023-02-28T01:45:58;2.00;99.90
37984;DHT22;64625;50.882;4.376;2023-02-28T01:48:31;2.00;99.90
37984;DHT22;64625;50.882;4.376;2023-02-28T01:51:03;2.00;99.90
37984;DHT22;64625;50.882;4.376;2023-02-28T01:53:38;1.90;99.90
37984;DHT22;64625;50.882;4.376;2023-02-28T01:56:06;2.00;99.90
37984;DHT22;64625;50.882;4.376;2023-02-28T01:58:35;1.90;99.90
37984;DHT22;64625;50.882;4.376;2023-02-28T02:01:01;2.00;99.90
37984;DHT22;64625;50.882;4.376;2023-02-28T02:03:29;1.90;99.90
37984;DHT22;64625;50.882;4.376;2023-02-28T02:05:55;1.90;99.90
37984;DHT22;64625;50.882;4.376;2023-02-28T02:08:24;1.90;99.90
37984;DHT22;64625;50.882;4.376;2023-02-28T02:11:01;1.90;99.90
37984;DHT22;64625;50.882;4.376;2023-02-28T02:43:52;1.70;99.90
37984;DHT22;64625;50.882;4.376;2023-02-28T02:46:42;1.70;99.90
37984;DHT22;64625;50.882;4.376;2023-02-28T02:49:15;1.70;99.90
37984;DHT22;64625;50.882;4.376;2023-02-28T02:51:43;1.70;99.90
37984;DHT22;64625;50.882;4.376;2023-02-28T02:56:41;1.60;99.90
37984;DHT22;64625;50.882;4.376;2023-02-28T02:59:11;1.60;99.90
37984;DHT22;64625;50.882;4.376;2023-02-28T03:01:40;1.60;99.90
37984;DHT22;64625;50.882;4.376;2023-02-28T03:04:13;1.60;99.90
37984;DHT22;64625;50.882;4.376;2023-02-28T03:06:41;1.50;99.90
37984;DHT22;64625;50.882;4.376;2023-02-28T03:09:07;1.50;99.90
37984;DHT22;64625;50.882;4.376;2023-02-28T03:11:35;1.50;99.90
37984;DHT22;64625;50.882;4.376;2023-02-28T03:17:14;1.40;99.90
37984;DHT22;64625;50.882;4.376;2023-02-28T03:20:00;1.40;99.90
37984;DHT22;64625;50.882;4.376;2023-02-28T03:23:16;1.40;99.90
37984;DHT22;64625;50.882;4.376;2023-02-28T03:25:59;1.40;99.90
37984;DHT22;64625;50.882;4.376;2023-02-28T03:28:51;1.40;99.90
37984;DHT22;64625;50.882;4.376;2023-02-28T03:31:30;1.40;99.90
37984;DHT22;64625;50.882;4.376;2023-02-28T03:34:08;1.30;99.90
37984;DHT22;64625;50.882;4.376;2023-02-28T03:36:39;1.30;99.90
37984;DHT22;64625;50.882;4.376;2023-02-28T03:39:27;1.30;99.90
37984;DHT22;64625;50.882;4.376;2023-02-28T03:42:05;1.30;99.90
37984;DHT22;64625;50.882;4.376;2023-02-28T03:44:36;1.30;99.90
37984;DHT22;64625;50.882;4.376;2023-02-28T03:47:37;1.30;99.90
37984;DHT22;64625;50.882;4.376;2023-02-28T03:50:13;1.30;99.90
37984;DHT22;64625;50.882;4.376;2023-02-28T03:52:49;1.30;99.90
37984;DHT22;64625;50.882;4.376;2023-02-28T03:55:17;1.20;99.90
37984;DHT22;64625;50.882;4.376;2023-02-28T03:58:04;1.20;99.90
37984;DHT22;64625;50.882;4.376;2023-02-28T04:00:38;1.20;99.90
37984;DHT22;64625;50.882;4.376;2023-02-28T04:03:04;1.20;99.90
37984;DHT22;64625;50.882;4.376;2023-02-28T04:05:31;1.20;99.90
37984;DHT22;64625;50.882;4.376;2023-02-28T04:08:05;1.20;99.90
37984;DHT22;64625;50.882;4.376;2023-02-28T04:10:31;1.10;99.90
37984;DHT22;64625;50.882;4.376;2023-02-28T04:12:57;1.10;99.90
37984;DHT22;64625;50.882;4.376;2023-02-28T04:15:23;1.10;99.90
37984;DHT22;64625;50.882;4.376;2023-02-28T04:17:50;1.10;99.90
37984;DHT22;64625;50.882;4.376;2023-02-28T04:20:16;1.10;99.90
37984;DHT22;64625;50.882;4.376;2023-02-28T04:22:43;1.10;99.90
37984;DHT22;64625;50.882;4.376;2023-02-28T04:25:08;1.10;99.90
37984;DHT22;64625;50.882;4.376;2023-02-28T04:27:34;1.10;99.90
37984;DHT22;64625;50.882;4.376;2023-02-28T04:30:00;1.10;99.90
37984;DHT22;64625;50.882;4.376;2023-02-28T04:32:26;1.10;99.90
37984;DHT22;64625;50.882;4.376;2023-02-28T04:34:52;1.10;99.90
37984;DHT22;64625;50.882;4.376;2023-02-28T04:37:17;1.20;99.90
37984;DHT22;64625;50.882;4.376;2023-02-28T04:39:43;1.20;99.90
37984;DHT22;64625;50.882;4.376;2023-02-28T04:42:10;1.20;99.90
37984;DHT22;64625;50.882;4.376;2023-02-28T04:44:37;1.20;99.90
37984;DHT22;64625;50.882;4.376;2023-02-28T04:47:02;1.20;99.90
37984;DHT22;64625;50.882;4.376;2023-02-28T04:49:28;1.20;99.90
37984;DHT22;64625;50.882;4.376;2023-02-28T04:51:54;1.20;99.90
37984;DHT22;64625;50.882;4.376;2023-02-28T04:54:21;1.20;99.90
37984;DHT22;64625;50.882;4.376;2023-02-28T04:56:47;1.20;99.90
37984;DHT22;64625;50.882;4.376;2023-02-28T04:59:15;1.10;99.90
37984;DHT22;64625;50.882;4.376;2023-02-28T05:01:40;1.10;99.90
37984;DHT22;64625;50.882;4.376;2023-02-28T05:04:11;1.10;99.90
37984;DHT22;64625;50.882;4.376;2023-02-28T05:06:37;1.10;99.90
37984;DHT22;64625;50.882;4.376;2023-02-28T05:09:03;1.20;99.90
37984;DHT22;64625;50.882;4.376;2023-02-28T05:11:31;1.20;99.90
37984;DHT22;64625;50.882;4.376;2023-02-28T05:14:01;1.20;99.90
37984;DHT22;64625;50.882;4.376;2023-02-28T05:16:27;1.20;99.90
37984;DHT22;64625;50.882;4.376;2023-02-28T05:18:53;1.20;99.90
37984;DHT22;64625;50.882;4.376;2023-02-28T05:21:34;1.30;99.90
37984;DHT22;64625;50.882;4.376;2023-02-28T05:24:06;1.30;99.90
37984;DHT22;64625;50.882;4.376;2023-02-28T05:26:40;1.30;99.90
37984;DHT22;64625;50.882;4.376;2023-02-28T05:29:06;1.40;99.90
37984;DHT22;64625;50.882;4.376;2023-02-28T05:31:33;1.30;99.90
37984;DHT22;64625;50.882;4.376;2023-02-28T05:33:59;1.40;99.90
37984;DHT22;64625;50.882;4.376;2023-02-28T05:36:25;1.40;99.90
37984;DHT22;64625;50.882;4.376;2023-02-28T05:38:51;1.40;99.90
37984;DHT22;64625;50.882;4.376;2023-02-28T05:41:18;1.40;99.90
37984;DHT22;64625;50.882;4.376;2023-02-28T05:43:44;1.50;99.90
37984;DHT22;64625;50.882;4.376;2023-02-28T05:46:11;1.50;99.90
37984;DHT22;64625;50.882;4.376;2023-02-28T05:48:39;1.50;99.90
37984;DHT22;64625;50.882;4.376;2023-02-28T05:51:06;1.50;99.90
37984;DHT22;64625;50.882;4.376;2023-02-28T05:53:33;1.60;99.90
37984;DHT22;64625;50.882;4.376;2023-02-28T05:55:59;1.60;99.90
37984;DHT22;64625;50.882;4.376;2023-02-28T05:58:25;1.60;99.90
37984;DHT22;64625;50.882;4.376;2023-02-28T06:00:54;1.60;99.90
37984;DHT22;64625;50.882;4.376;2023-02-28T06:03:20;1.60;99.90
37984;DHT22;64625;50.882;4.376;2023-02-28T06:05:46;1.60;99.90
37984;DHT22;64625;50.882;4.376;2023-02-28T06:08:12;1.70;99.90
37984;DHT22;64625;50.882;4.376;2023-02-28T06:10:37;1.70;99.90
37984;DHT22;64625;50.882;4.376;2023-02-28T06:13:04;1.70;99.90
37984;DHT22;64625;50.882;4.376;2023-02-28T06:15:30;1.70;99.90
37984;DHT22;64625;50.882;4.376;2023-02-28T06:17:56;1.70;99.90
37984;DHT22;64625;50.882;4.376;2023-02-28T06:20:23;1.70;99.90
37984;DHT22;64625;50.882;4.376;2023-02-28T06:22:50;1.80;99.90
37984;DHT22;64625;50.882;4.376;2023-02-28T06:25:17;1.80;99.90
37984;DHT22;64625;50.882;4.376;2023-02-28T06:27:43;1.80;99.90
37984;DHT22;64625;50.882;4.376;2023-02-28T06:30:10;1.80;99.90
37984;DHT22;64625;50.882;4.376;2023-02-28T06:32:36;1.80;99.90
37984;DHT22;64625;50.882;4.376;2023-02-28T06:35:02;1.80;99.90
37984;DHT22;64625;50.882;4.376;2023-02-28T06:37:30;1.80;99.90
37984;DHT22;64625;50.882;4.376;2023-02-28T06:39:56;1.80;99.90
37984;DHT22;64625;50.882;4.376;2023-02-28T06:42:24;1.80;99.90
37984;DHT22;64625;50.882;4.376;2023-02-28T06:44:57;1.90;99.90
37984;DHT22;64625;50.882;4.376;2023-02-28T06:47:23;1.90;99.90
37984;DHT22;64625;50.882;4.376;2023-02-28T06:49:49;1.90;99.90
37984;DHT22;64625;50.882;4.376;2023-02-28T06:52:15;1.90;99.90
37984;DHT22;64625;50.882;4.376;2023-02-28T06:54:41;1.90;99.90
37984;DHT22;64625;50.882;4.376;2023-02-28T06:57:08;2.00;99.90
37984;DHT22;64625;50.882;4.376;2023-02-28T06:59:34;2.00;99.90
37984;DHT22;64625;50.882;4.376;2023-02-28T07:02:02;2.00;99.90
37984;DHT22;64625;50.882;4.376;2023-02-28T07:04:28;2.00;99.90
37984;DHT22;64625;50.882;4.376;2023-02-28T07:06:55;2.10;99.90
37984;DHT22;64625;50.882;4.376;2023-02-28T07:09:22;2.10;99.90
37984;DHT22;64625;50.882;4.376;2023-02-28T07:11:48;2.10;99.90
37984;DHT22;64625;50.882;4.376;2023-02-28T07:14:15;2.20;99.90
37984;DHT22;64625;50.882;4.376;2023-02-28T07:16:41;2.20;99.90
37984;DHT22;64625;50.882;4.376;2023-02-28T07:19:08;2.20;99.90
37984;DHT22;64625;50.882;4.376;2023-02-28T07:21:33;2.30;99.90
37984;DHT22;64625;50.882;4.376;2023-02-28T07:24:00;2.30;99.90
37984;DHT22;64625;50.882;4.376;2023-02-28T07:26:26;2.30;99.90
37984;DHT22;64625;50.882;4.376;2023-02-28T07:28:53;2.40;99.90
37984;DHT22;64625;50.882;4.376;2023-02-28T07:31:20;2.40;99.90
37984;DHT22;64625;50.882;4.376;2023-02-28T07:33:49;2.40;99.90
37984;DHT22;64625;50.882;4.376;2023-02-28T07:36:17;2.50;99.90
37984;DHT22;64625;50.882;4.376;2023-02-28T07:38:47;2.50;99.90
37984;DHT22;64625;50.882;4.376;2023-02-28T07:41:20;2.60;99.90
37984;DHT22;64625;50.882;4.376;2023-02-28T07:43:46;2.60;99.90
37984;DHT22;64625;50.882;4.376;2023-02-28T07:46:14;2.70;99.90
37984;DHT22;64625;50.882;4.376;2023-02-28T07:48:41;2.70;99.90
37984;DHT22;64625;50.882;4.376;2023-02-28T07:51:07;2.80;99.90
37984;DHT22;64625;50.882;4.376;2023-02-28T07:53:33;2.80;99.90
37984;DHT22;64625;50.882;4.376;2023-02-28T07:56:01;2.90;99.90
37984;DHT22;64625;50.882;4.376;2023-02-28T07:58:29;3.00;99.90
37984;DHT22;64625;50.882;4.376;2023-02-28T08:00:55;3.00;99.90
37984;DHT22;64625;50.882;4.376;2023-02-28T08:03:23;3.10;99.90
37984;DHT22;64625;50.882;4.376;2023-02-28T08:05:49;3.10;99.90
37984;DHT22;64625;50.882;4.376;2023-02-28T08:08:16;3.20;99.90
37984;DHT22;64625;50.882;4.376;2023-02-28T08:10:43;3.20;99.90
37984;DHT22;64625;50.882;4.376;2023-02-28T08:13:09;3.30;99.90
37984;DHT22;64625;50.882;4.376;2023-02-28T08:15:35;3.40;99.90
37984;DHT22;64625;50.882;4.376;2023-02-28T08:18:02;3.50;99.90
37984;DHT22;64625;50.882;4.376;2023-02-28T08:20:27;3.50;99.90
37984;DHT22;64625;50.882;4.376;2023-02-28T08:22:54;3.60;99.90
37984;DHT22;64625;50.882;4.376;2023-02-28T08:25:20;3.70;99.90
37984;DHT22;64625;50.882;4.376;2023-02-28T08:27:46;3.80;99.90
37984;DHT22;64625;50.882;4.376;2023-02-28T08:30:13;3.90;99.90
37984;DHT22;64625;50.882;4.376;2023-02-28T08:32:40;4.00;99.90
37984;DHT22;64625;50.882;4.376;2023-02-28T08:35:06;4.10;99.90
37984;DHT22;64625;50.882;4.376;2023-02-28T08:37:34;4.20;99.90
37984;DHT22;64625;50.882;4.376;2023-02-28T08:40:00;4.30;99.90
37984;DHT22;64625;50.882;4.376;2023-02-28T08:42:26;4.30;99.90
37984;DHT22;64625;50.882;4.376;2023-02-28T08:44:52;4.40;99.90
37984;DHT22;64625;50.882;4.376;2023-02-28T08:47:18;4.50;99.90
37984;DHT22;64625;50.882;4.376;2023-02-28T08:49:45;4.50;99.90
37984;DHT22;64625;50.882;4.376;2023-02-28T08:52:10;4.60;99.90
37984;DHT22;64625;50.882;4.376;2023-02-28T08:54:37;4.60;99.90
37984;DHT22;64625;50.882;4.376;2023-02-28T08:57:03;4.60;99.90
37984;DHT22;64625;50.882;4.376;2023-02-28T08:59:29;4.60;99.90
37984;DHT22;64625;50.882;4.376;2023-02-28T09:01:55;4.60;99.90
37984;DHT22;64625;50.882;4.376;2023-02-28T09:04:21;4.70;99.90
37984;DHT22;64625;50.882;4.376;2023-02-28T09:06:47;4.70;99.90
37984;DHT22;64625;50.882;4.376;2023-02-28T09:09:15;4.70;99.90
37984;DHT22;64625;50.882;4.376;2023-02-28T09:11:41;4.70;99.90
37984;DHT22;64625;50.882;4.376;2023-02-28T09:14:07;4.80;99.90
37984;DHT22;64625;50.882;4.376;2023-02-28T09:16:34;4.80;99.90
37984;DHT22;64625;50.882;4.376;2023-02-28T09:19:00;4.80;99.90
37984;DHT22;64625;50.882;4.376;2023-02-28T09:21:26;4.80;99.90
37984;DHT22;64625;50.882;4.376;2023-02-28T09:23:52;4.90;99.90
37984;DHT22;64625;50.882;4.376;2023-02-28T09:26:26;4.90;99.90
37984;DHT22;64625;50.882;4.376;2023-02-28T09:28:53;5.00;99.90
37984;DHT22;64625;50.882;4.376;2023-02-28T09:31:26;5.00;99.90
37984;DHT22;64625;50.882;4.376;2023-02-28T09:33:54;5.00;99.90
37984;DHT22;64625;50.882;4.376;2023-02-28T09:36:21;5.00;99.90
37984;DHT22;64625;50.882;4.376;2023-02-28T09:38:47;5.00;99.90
37984;DHT22;64625;50.882;4.376;2023-02-28T09:41:17;5.10;99.90
37984;DHT22;64625;50.882;4.376;2023-02-28T09:43:47;5.10;99.90
37984;DHT22;64625;50.882;4.376;2023-02-28T09:48:47;5.10;99.90
37984;DHT22;64625;50.882;4.376;2023-02-28T09:51:16;5.20;99.90
37984;DHT22;64625;50.882;4.376;2023-02-28T09:53:49;5.20;99.90
37984;DHT22;64625;50.882;4.376;2023-02-28T09:56:28;5.20;99.90
37984;DHT22;64625;50.882;4.376;2023-02-28T09:59:10;5.20;99.90
37984;DHT22;64625;50.882;4.376;2023-02-28T10:01:52;5.30;99.90
37984;DHT22;64625;50.882;4.376;2023-02-28T10:06:56;5.40;99.90
37984;DHT22;64625;50.882;4.376;2023-02-28T10:09:26;5.40;99.90
37984;DHT22;64625;50.882;4.376;2023-02-28T10:12:00;5.40;99.90
37984;DHT22;64625;50.882;4.376;2023-02-28T10:14:30;5.50;99.90
37984;DHT22;64625;50.882;4.376;2023-02-28T10:17:08;5.50;99.90
37984;DHT22;64625;50.882;4.376;2023-02-28T10:22:25;5.60;98.30
37984;DHT22;64625;50.882;4.376;2023-02-28T10:24:55;5.60;98.10
37984;DHT22;64625;50.882;4.376;2023-02-28T10:27:29;5.60;98.00
37984;DHT22;64625;50.882;4.376;2023-02-28T10:29:58;5.60;97.90
37984;DHT22;64625;50.882;4.376;2023-02-28T10:32:27;5.60;97.70
37984;DHT22;64625;50.882;4.376;2023-02-28T10:35:25;5.70;97.00
37984;DHT22;64625;50.882;4.376;2023-02-28T10:37:58;5.70;95.50
37984;DHT22;64625;50.882;4.376;2023-02-28T10:40:36;5.70;96.00
37984;DHT22;64625;50.882;4.376;2023-02-28T10:45:38;5.80;94.30
37984;DHT22;64625;50.882;4.376;2023-02-28T10:48:30;5.80;94.60
37984;DHT22;64625;50.882;4.376;2023-02-28T10:50:58;5.90;93.20
37984;DHT22;64625;50.882;4.376;2023-02-28T10:58:57;5.90;91.70
37984;DHT22;64625;50.882;4.376;2023-02-28T11:01:43;6.00;91.80
37984;DHT22;64625;50.882;4.376;2023-02-28T11:07:17;6.00;91.60
37984;DHT22;64625;50.882;4.376;2023-02-28T11:09:46;6.10;91.40
37984;DHT22;64625;50.882;4.376;2023-02-28T11:12:26;6.10;91.10
37984;DHT22;64625;50.882;4.376;2023-02-28T11:15:03;6.10;91.00
37984;DHT22;64625;50.882;4.376;2023-02-28T11:17:33;6.20;91.00
37984;DHT22;64625;50.882;4.376;2023-02-28T11:20:07;6.20;91.10
37984;DHT22;64625;50.882;4.376;2023-02-28T11:22:45;6.20;90.50
37984;DHT22;64625;50.882;4.376;2023-02-28T11:27:51;6.30;88.10
37984;DHT22;64625;50.882;4.376;2023-02-28T11:30:41;6.30;91.00
37984;DHT22;64625;50.882;4.376;2023-02-28T11:33:28;6.40;90.20
37984;DHT22;64625;50.882;4.376;2023-02-28T11:36:00;6.40;90.30
37984;DHT22;64625;50.882;4.376;2023-02-28T11:38:27;6.50;90.40
37984;DHT22;64625;50.882;4.376;2023-02-28T11:51:35;6.60;86.20
37984;DHT22;64625;50.882;4.376;2023-02-28T12:05:45;6.70;84.60
37984;DHT22;64625;50.882;4.376;2023-02-28T12:08:20;6.80;84.50
37984;DHT22;64625;50.882;4.376;2023-02-28T12:11:53;6.80;85.90
37984;DHT22;64625;50.882;4.376;2023-02-28T12:27:40;7.10;83.20
37984;DHT22;64625;50.882;4.376;2023-02-28T12:30:21;7.10;83.40
37984;DHT22;64625;50.882;4.376;2023-02-28T12:32:58;7.20;83.10
37984;DHT22;64625;50.882;4.376;2023-02-28T12:35:41;7.30;81.80
37984;DHT22;64625;50.882;4.376;2023-02-28T12:38:27;7.30;82.00
37984;DHT22;64625;50.882;4.376;2023-02-28T12:41:00;7.40;80.70
37984;DHT22;64625;50.882;4.376;2023-02-28T12:43:38;7.40;81.00
37984;DHT22;64625;50.882;4.376;2023-02-28T12:46:19;7.40;81.00
37984;DHT22;64625;50.882;4.376;2023-02-28T12:48:57;7.40;79.10
37984;DHT22;64625;50.882;4.376;2023-02-28T12:51:25;7.40;78.70
37984;DHT22;64625;50.882;4.376;2023-02-28T12:56:53;7.40;78.50
37984;DHT22;64625;50.882;4.376;2023-02-28T13:02:40;7.50;78.10
37984;DHT22;64625;50.882;4.376;2023-02-28T13:10:53;7.60;76.50
37984;DHT22;64625;50.882;4.376;2023-02-28T13:13:27;7.60;75.60
37984;DHT22;64625;50.882;4.376;2023-02-28T13:18:37;7.60;76.20
37984;DHT22;64625;50.882;4.376;2023-02-28T13:21:09;7.70;76.90
37984;DHT22;64625;50.882;4.376;2023-02-28T13:24:05;7.70;76.20
37984;DHT22;64625;50.882;4.376;2023-02-28T13:34:27;7.80;72.70
37984;DHT22;64625;50.882;4.376;2023-02-28T13:39:58;7.80;73.60
37984;DHT22;64625;50.882;4.376;2023-02-28T13:42:37;7.90;73.70
37984;DHT22;64625;50.882;4.376;2023-02-28T13:47:39;7.90;73.80
37984;DHT22;64625;50.882;4.376;2023-02-28T13:55:53;7.90;70.40
37984;DHT22;64625;50.882;4.376;2023-02-28T13:59:21;7.90;71.50
37984;DHT22;64625;50.882;4.376;2023-02-28T14:07:49;8.00;72.50
37984;DHT22;64625;50.882;4.376;2023-02-28T14:10:30;8.00;71.50
37984;DHT22;64625;50.882;4.376;2023-02-28T14:13:00;8.00;69.90
37984;DHT22;64625;50.882;4.376;2023-02-28T14:18:26;8.00;70.30
37984;DHT22;64625;50.882;4.376;2023-02-28T14:20:59;8.00;69.60
37984;DHT22;64625;50.882;4.376;2023-02-28T14:23:55;8.00;70.10
37984;DHT22;64625;50.882;4.376;2023-02-28T14:26:49;8.00;70.20
37984;DHT22;64625;50.882;4.376;2023-02-28T14:35:20;8.10;68.50
37984;DHT22;64625;50.882;4.376;2023-02-28T14:37:39;8.00;69.50
37984;DHT22;64625;50.882;4.376;2023-02-28T14:40:33;8.00;70.10
37984;DHT22;64625;50.882;4.376;2023-02-28T14:43:03;8.00;68.80
37984;DHT22;64625;50.882;4.376;2023-02-28T14:45:31;8.00;69.30
37984;DHT22;64625;50.882;4.376;2023-02-28T14:47:58;7.90;69.20
37984;DHT22;64625;50.882;4.376;2023-02-28T14:50:36;7.90;69.90
37984;DHT22;64625;50.882;4.376;2023-02-28T14:53:03;7.90;69.80
37984;DHT22;64625;50.882;4.376;2023-02-28T14:55:35;7.90;69.80
37984;DHT22;64625;50.882;4.376;2023-02-28T14:58:04;7.90;69.50
37984;DHT22;64625;50.882;4.376;2023-02-28T15:00:37;7.90;70.00
37984;DHT22;64625;50.882;4.376;2023-02-28T15:03:38;7.90;69.30
37984;DHT22;64625;50.882;4.376;2023-02-28T15:06:06;7.90;70.00
37984;DHT22;64625;50.882;4.376;2023-02-28T15:08:32;7.90;70.40
37984;DHT22;64625;50.882;4.376;2023-02-28T15:11:18;7.90;70.30
37984;DHT22;64625;50.882;4.376;2023-02-28T15:13:54;7.90;70.10
37984;DHT22;64625;50.882;4.376;2023-02-28T15:16:28;7.90;69.50
37984;DHT22;64625;50.882;4.376;2023-02-28T15:19:21;7.90;68.70
37984;DHT22;64625;50.882;4.376;2023-02-28T15:21:58;7.80;69.00
37984;DHT22;64625;50.882;4.376;2023-02-28T15:27:00;7.70;69.50
37984;DHT22;64625;50.882;4.376;2023-02-28T15:29:41;7.70;69.20
37984;DHT22;64625;50.882;4.376;2023-02-28T15:32:24;7.60;69.30
37984;DHT22;64625;50.882;4.376;2023-02-28T15:34:51;7.60;70.10
37984;DHT22;64625;50.882;4.376;2023-02-28T15:40:36;7.60;69.60
37984;DHT22;64625;50.882;4.376;2023-02-28T15:43:13;7.60;70.10
37984;DHT22;64625;50.882;4.376;2023-02-28T15:45:52;7.70;70.40
37984;DHT22;64625;50.882;4.376;2023-02-28T15:53:31;7.70;71.10
37984;DHT22;64625;50.882;4.376;2023-02-28T15:56:04;7.60;71.00
37984;DHT22;64625;50.882;4.376;2023-02-28T15:58:32;7.60;71.20
37984;DHT22;64625;50.882;4.376;2023-02-28T16:01:24;7.60;70.90
37984;DHT22;64625;50.882;4.376;2023-02-28T16:03:50;7.50;70.80
37984;DHT22;64625;50.882;4.376;2023-02-28T16:08:48;7.50;72.00
37984;DHT22;64625;50.882;4.376;2023-02-28T16:11:22;7.40;72.00
37984;DHT22;64625;50.882;4.376;2023-02-28T16:13:49;7.40;71.90
37984;DHT22;64625;50.882;4.376;2023-02-28T16:16:17;7.30;71.90
37984;DHT22;64625;50.882;4.376;2023-02-28T16:18:44;7.30;72.00
37984;DHT22;64625;50.882;4.376;2023-02-28T16:21:12;7.30;72.10
37984;DHT22;64625;50.882;4.376;2023-02-28T16:23:38;7.20;72.10
37984;DHT22;64625;50.882;4.376;2023-02-28T16:26:04;7.20;72.30
37984;DHT22;64625;50.882;4.376;2023-02-28T16:28:34;7.20;73.00
37984;DHT22;64625;50.882;4.376;2023-02-28T16:31:01;7.10;72.70
37984;DHT22;64625;50.882;4.376;2023-02-28T16:33:28;7.10;72.40
37984;DHT22;64625;50.882;4.376;2023-02-28T16:35:55;7.00;72.80
37984;DHT22;64625;50.882;4.376;2023-02-28T16:38:21;7.00;72.60
37984;DHT22;64625;50.882;4.376;2023-02-28T16:40:50;7.00;73.10
37984;DHT22;64625;50.882;4.376;2023-02-28T16:43:18;7.00;73.30
37984;DHT22;64625;50.882;4.376;2023-02-28T16:45:47;6.90;73.60
37984;DHT22;64625;50.882;4.376;2023-02-28T16:48:15;6.90;73.10
37984;DHT22;64625;50.882;4.376;2023-02-28T16:50:42;6.90;73.40
37984;DHT22;64625;50.882;4.376;2023-02-28T16:53:11;6.90;73.50
37984;DHT22;64625;50.882;4.376;2023-02-28T16:55:37;6.90;73.60
37984;DHT22;64625;50.882;4.376;2023-02-28T16:58:05;6.80;73.60
37984;DHT22;64625;50.882;4.376;2023-02-28T17:00:32;6.80;73.90
37984;DHT22;64625;50.882;4.376;2023-02-28T17:02:59;6.80;74.50
37984;DHT22;64625;50.882;4.376;2023-02-28T17:05:26;6.70;74.60
37984;DHT22;64625;50.882;4.376;2023-02-28T17:07:53;6.70;74.80
37984;DHT22;64625;50.882;4.376;2023-02-28T17:10:24;6.70;74.90
37984;DHT22;64625;50.882;4.376;2023-02-28T17:12:51;6.70;74.80
37984;DHT22;64625;50.882;4.376;2023-02-28T17:15:19;6.60;73.80
37984;DHT22;64625;50.882;4.376;2023-02-28T17:17:48;6.60;75.40
37984;DHT22;64625;50.882;4.376;2023-02-28T17:20:19;6.60;75.60
37984;DHT22;64625;50.882;4.376;2023-02-28T17:22:55;6.60;75.90
37984;DHT22;64625;50.882;4.376;2023-02-28T17:25:22;6.60;76.30
37984;DHT22;64625;50.882;4.376;2023-02-28T17:27:49;6.50;76.80
37984;DHT22;64625;50.882;4.376;2023-02-28T17:30:22;6.50;77.10
37984;DHT22;64625;50.882;4.376;2023-02-28T17:32:48;6.50;77.40
37984;DHT22;64625;50.882;4.376;2023-02-28T17:35:15;6.50;77.50
37984;DHT22;64625;50.882;4.376;2023-02-28T17:37:41;6.50;77.70
37984;DHT22;64625;50.882;4.376;2023-02-28T17:40:19;6.50;77.80
37984;DHT22;64625;50.882;4.376;2023-02-28T17:42:45;6.40;77.90
37984;DHT22;64625;50.882;4.376;2023-02-28T17:45:12;6.40;78.10
37984;DHT22;64625;50.882;4.376;2023-02-28T17:47:39;6.40;78.40
37984;DHT22;64625;50.882;4.376;2023-02-28T17:50:05;6.40;78.50
37984;DHT22;64625;50.882;4.376;2023-02-28T17:52:31;6.40;78.50
37984;DHT22;64625;50.882;4.376;2023-02-28T17:55:28;6.30;79.10
37984;DHT22;64625;50.882;4.376;2023-02-28T17:57:54;6.30;78.40
37984;DHT22;64625;50.882;4.376;2023-02-28T18:00:21;6.30;79.00
37984;DHT22;64625;50.882;4.376;2023-02-28T18:02:50;6.30;79.20
37984;DHT22;64625;50.882;4.376;2023-02-28T18:05:17;6.30;79.30
37984;DHT22;64625;50.882;4.376;2023-02-28T18:07:44;6.20;79.30
37984;DHT22;64625;50.882;4.376;2023-02-28T18:10:19;6.20;79.30
37984;DHT22;64625;50.882;4.376;2023-02-28T18:12:51;6.20;79.30
37984;DHT22;64625;50.882;4.376;2023-02-28T18:15:21;6.20;79.30
37984;DHT22;64625;50.882;4.376;2023-02-28T18:17:49;6.20;79.20
37984;DHT22;64625;50.882;4.376;2023-02-28T18:20:16;6.10;78.80
37984;DHT22;64625;50.882;4.376;2023-02-28T18:22:42;6.10;78.60
37984;DHT22;64625;50.882;4.376;2023-02-28T18:25:10;6.10;78.80
37984;DHT22;64625;50.882;4.376;2023-02-28T18:27:39;6.10;79.00
37984;DHT22;64625;50.882;4.376;2023-02-28T18:30:26;6.00;78.90
37984;DHT22;64625;50.882;4.376;2023-02-28T18:32:54;6.00;79.00
37984;DHT22;64625;50.882;4.376;2023-02-28T18:35:22;6.00;79.00
37984;DHT22;64625;50.882;4.376;2023-02-28T18:38:06;6.00;78.90
37984;DHT22;64625;50.882;4.376;2023-02-28T18:40:33;5.90;78.60